Meath Environmental Platform

Observations

Time Sensor AQI SAQ Temp °C Hum % Pres Pa CO μg/m³ H₂S μg/m³ NO μg/m³ NO₂ μg/m³ O₃ μg/m³ SO₂ μg/m³ CO₂e PPM VOC PPM PM1 μg/m³ PM2.5 μg/m³ PM4 μg/m³ PM10 μg/m³ TPS µm
Wednesday 12 August 2026
20:06 Trim Market St 3 30 40 65,933 0 1.05 0.49 15.72 82.93 0 2.85 5.54 5.91
20:06 Trim Patrick St 3 30.8 39 69,389 0 18.23 0.43 17.03 70.27 17.88 4.57 11.02 12.12
20:05 Trim Market St 3 30.1 40 65,927 0 0.54 0.49 14.16 83.99 0 2.14 5.02 6.72
20:05 Trim Patrick St 3 30.9 39 69,395 0 20.29 0.45 18.84 66.02 17.95 2.86 8.66 9.53
20:04 Trim Patrick St 3 30.9 39 69,399 0 18.3 0.46 19.87 66.49 17.63 4.57 10.24 11.26
20:03 Trim Market St 3 30.2 40 65,906 0 1.33 0.46 14.92 80.28 0 1.43 5.02 6.72
20:03 Trim Patrick St 4 31 39 69,402 0 20.44 0.44 16.66 66.77 18.51 4.57 10.27 11.29
20:02 Trim Patrick St 3 31 39 69,406 0 21.49 0.43 25.39 63 18.15 3.71 9.45 10.4
20:01 Trim Market St 3 30.2 39 65,937 0 2.99 0.45 18.4 84.19 0 2.85 6.08 6.72
20:01 Trim Patrick St 3 31 39 69,412 0 21.01 0.45 24.26 63.71 18.26 4.57 9.45 10.4
20:00 Trim Market St 3 30.3 39 65,955 0 0.76 0.43 15.86 72.24 0 2.85 6.1 7.53
20:00 Trim Patrick St 4 31.1 39 69,420 0 19.68 0.43 24.13 60.7 17.92 4.57 11.06 12.17
19:59 Trim Patrick St 3 31.1 39 69,402 0 22.93 0.41 29.72 62.05 18.51 4.57 11.05 12.16
19:58 Trim Patrick St 4 31.1 38 69,406 0 21.99 0.42 22.08 62.64 18.44 2.86 8.71 9.59
19:57 Trim Market St 3 30.3 39 65,983 0 0.82 0.43 16.08 78.26 0 2.85 6.1 7.53
19:57 Trim Patrick St 4 31.2 39 69,410 0 19.38 0.4 22.74 65.05 18.23 5.43 11.05 12.15
19:56 Trim Patrick St 4 31.2 38 69,416 0 22.34 0.41 23.82 63.68 18.71 4.57 10.29 11.32
19:55 Trim Patrick St 4 31.2 39 69,424 0 22.17 0.42 27.03 63.89 18.69 3.71 9.48 10.43
19:54 Trim Market St 3 30.4 39 66,017 0 0.06 0.44 15.85 78.86 0 2.14 5.05 5.09
19:54 Trim Patrick St 3 31.2 39 69,434 0 20.46 0.42 29.57 61.49 17.37 3.71 10.27 11.29